Time;durP1;ratioP1;P1;durP2;ratioP2;P2;SDS_P1;SDS_P2;PMS_P1;PMS_P2;Temp;Humidity;BMP_temperature;BMP_pressure;BME280_temperature;BME280_humidity;BME280_pressure;Samples;Min_cycle;Max_cycle;Signal;HPM_P1;HPM_P2
2023/02/11 00:00:41;;;;;;;22.13;9.68;;;;;;;;;;5081600;28;20008;-65
2023/02/11 00:03:06;;;;;;;25.83;10.85;;;;;;;;;;5082775;28;20032;-65
2023/02/11 00:05:31;;;;;;;25.10;10.57;;;;;;;;;;5088369;28;20033;-65
2023/02/11 00:07:56;;;;;;;25.05;9.98;;;;;;;;;;5080078;28;20466;-66
2023/02/11 00:10:21;;;;;;;26.03;10.17;;;;;;;;;;5084392;28;20028;-70
2023/02/11 00:12:46;;;;;;;24.93;10.37;;;;;;;;;;5089033;28;20094;-66
2023/02/11 00:15:12;;;;;;;23.45;9.85;;;;;;;;;;5081277;28;20024;-66
2023/02/11 00:17:37;;;;;;;23.43;9.57;;;;;;;;;;5084161;28;20092;-66
2023/02/11 00:20:02;;;;;;;21.20;9.95;;;;;;;;;;5085223;28;20107;-69
2023/02/11 00:22:27;;;;;;;27.83;11.63;;;;;;;;;;5082717;28;20469;-67
2023/02/11 00:24:52;;;;;;;27.35;10.88;;;;;;;;;;5083416;28;21001;-65
2023/02/11 00:27:18;;;;;;;26.23;10.82;;;;;;;;;;5088969;28;20501;-65
2023/02/11 00:29:43;;;;;;;22.70;9.73;;;;;;;;;;5087855;28;20523;-65
2023/02/11 00:32:08;;;;;;;24.70;10.50;;;;;;;;;;5080285;28;20036;-65
2023/02/11 00:34:34;;;;;;;27.47;10.37;;;;;;;;;;5085047;28;20039;-65
2023/02/11 00:36:59;;;;;;;26.58;11.88;;;;;;;;;;5089567;28;20473;-65
2023/02/11 00:39:24;;;;;;;25.70;10.25;;;;;;;;;;5090427;28;20031;-67
2023/02/11 00:41:50;;;;;;;25.50;10.63;;;;;;;;;;5088479;28;20066;-66
2023/02/11 00:44:15;;;;;;;24.80;10.45;;;;;;;;;;5083846;28;20504;-67
2023/02/11 00:46:40;;;;;;;22.93;9.80;;;;;;;;;;5089003;28;20862;-66
2023/02/11 00:49:05;;;;;;;26.10;10.52;;;;;;;;;;5081038;28;20063;-68
2023/02/11 00:51:30;;;;;;;24.58;10.32;;;;;;;;;;5070860;28;20044;-65
2023/02/11 00:53:56;;;;;;;22.70;9.77;;;;;;;;;;5075156;28;20055;-66
2023/02/11 00:56:21;;;;;;;23.23;9.98;;;;;;;;;;5090398;28;20028;-65
2023/02/11 00:58:46;;;;;;;24.80;10.27;;;;;;;;;;5089569;28;20019;-68
2023/02/11 01:01:12;;;;;;;27.27;10.50;;;;;;;;;;5082722;28;20120;-66
2023/02/11 01:03:37;;;;;;;24.48;10.68;;;;;;;;;;5083046;28;20024;-66
2023/02/11 01:06:02;;;;;;;23.67;10.60;;;;;;;;;;5090763;28;20540;-68
2023/02/11 01:08:28;;;;;;;25.33;10.48;;;;;;;;;;5082279;28;20024;-66
2023/02/11 01:11:03;;;;;;;23.60;10.57;;;;;;;;;;5081752;28;20031;-68
2023/02/11 01:13:29;;;;;;;25.30;10.93;;;;;;;;;;5073287;28;20109;-66
2023/02/11 01:15:54;;;;;;;25.40;10.65;;;;;;;;;;5072551;28;20104;-66
2023/02/11 01:18:20;;;;;;;23.27;9.82;;;;;;;;;;5080873;28;20448;-66
2023/02/11 01:20:45;;;;;;;22.80;10.80;;;;;;;;;;5085166;28;20016;-67
2023/02/11 01:23:10;;;;;;;23.35;10.48;;;;;;;;;;5088078;28;20439;-67
2023/02/11 01:25:35;;;;;;;25.02;11.13;;;;;;;;;;5086616;28;20381;-66
2023/02/11 01:28:00;;;;;;;26.45;11.27;;;;;;;;;;5087752;28;20143;-67
2023/02/11 01:30:25;;;;;;;23.00;10.18;;;;;;;;;;5072969;28;20051;-65
2023/02/11 01:32:50;;;;;;;26.05;11.27;;;;;;;;;;5084272;28;20113;-64
2023/02/11 01:35:16;;;;;;;23.08;10.20;;;;;;;;;;5082230;28;20028;-66
2023/02/11 01:37:41;;;;;;;23.07;9.90;;;;;;;;;;5088109;28;20036;-67
2023/02/11 01:40:09;;;;;;;24.38;11.43;;;;;;;;;;5082979;28;20028;-67
2023/02/11 01:42:35;;;;;;;25.50;11.13;;;;;;;;;;5089502;28;20385;-68
2023/02/11 01:45:00;;;;;;;19.70;9.93;;;;;;;;;;5075782;28;20528;-68
2023/02/11 01:47:25;;;;;;;26.05;10.65;;;;;;;;;;5080670;28;20036;-68
2023/02/11 01:49:54;;;;;;;25.98;10.95;;;;;;;;;;5085693;28;20098;-67
2023/02/11 01:52:25;;;;;;;24.42;10.35;;;;;;;;;;5084931;28;20047;-66
2023/02/11 01:57:41;;;;;;;25.80;11.23;;;;;;;;;;5083031;28;20058;-66
2023/02/11 02:00:10;;;;;;;20.92;10.15;;;;;;;;;;5075626;28;20052;-67
2023/02/11 02:02:41;;;;;;;25.95;10.15;;;;;;;;;;5076801;28;20030;-67
2023/02/11 02:05:24;;;;;;;22.50;10.00;;;;;;;;;;5084947;28;20020;-65
2023/02/11 02:07:49;;;;;;;22.25;10.80;;;;;;;;;;5088801;28;20040;-66
2023/02/11 02:10:17;;;;;;;21.90;10.07;;;;;;;;;;5079680;28;20028;-65
2023/02/11 02:12:42;;;;;;;24.55;10.80;;;;;;;;;;5080878;28;20035;-66
2023/02/11 02:15:17;;;;;;;24.17;10.47;;;;;;;;;;5082273;28;20091;-66
2023/02/11 02:17:45;;;;;;;22.92;10.57;;;;;;;;;;5083055;28;20024;-66
2023/02/11 02:20:30;;;;;;;23.55;10.75;;;;;;;;;;5086853;28;20020;-68
2023/02/11 02:22:58;;;;;;;25.25;10.90;;;;;;;;;;5084641;28;20099;-65
2023/02/11 02:25:34;;;;;;;22.27;10.35;;;;;;;;;;5082800;28;20020;-67
2023/02/11 02:28:11;;;;;;;23.88;10.68;;;;;;;;;;5085583;28;20543;-66
2023/02/11 02:31:05;;;;;;;24.90;11.35;;;;;;;;;;5078205;28;20074;-67
2023/02/11 02:33:34;;;;;;;24.40;10.88;;;;;;;;;;5081006;28;20101;-66
2023/02/11 02:36:10;;;;;;;25.13;11.55;;;;;;;;;;5086376;28;20514;-67
2023/02/11 02:38:57;;;;;;;24.58;11.23;;;;;;;;;;5082925;28;20016;-66
2023/02/11 02:41:26;;;;;;;22.95;10.88;;;;;;;;;;5086933;28;20024;-67
2023/02/11 02:43:51;;;;;;;23.48;11.10;;;;;;;;;;5082703;28;20032;-66
2023/02/11 02:46:18;;;;;;;28.45;11.77;;;;;;;;;;5072666;28;20086;-67
2023/02/11 02:48:43;;;;;;;;;;;;;;;;;;5087550;28;20024;-67
2023/02/11 02:51:24;;;;;;;22.48;10.02;;;;;;;;;;5088403;28;19914;-66
2023/02/11 02:53:49;;;;;;;27.02;11.63;;;;;;;;;;5087862;28;20059;-67
2023/02/11 02:56:24;;;;;;;24.67;10.73;;;;;;;;;;5078811;28;20029;-66
2023/02/11 02:59:02;;;;;;;24.38;10.93;;;;;;;;;;5082810;28;20035;-66
2023/02/11 03:01:33;;;;;;;24.48;10.75;;;;;;;;;;5084524;28;20684;-67
2023/02/11 03:04:11;;;;;;;22.85;10.35;;;;;;;;;;5087145;28;20020;-67
2023/02/11 03:06:43;;;;;;;24.95;11.63;;;;;;;;;;5079234;28;20334;-66
2023/02/11 03:09:14;;;;;;;25.90;11.63;;;;;;;;;;5086840;28;20025;-66
2023/02/11 03:11:39;;;;;;;22.33;10.43;;;;;;;;;;5090855;28;20024;-66
2023/02/11 03:14:06;;;;;;;21.35;10.48;;;;;;;;;;5089306;28;20024;-64
2023/02/11 03:16:37;;;;;;;26.08;11.15;;;;;;;;;;5088435;28;20059;-66
2023/02/11 03:19:04;;;;;;;23.40;11.98;;;;;;;;;;5082720;28;20025;-66
2023/02/11 03:21:30;;;;;;;21.20;10.20;;;;;;;;;;5085238;28;20047;-67
2023/02/11 03:23:59;;;;;;;22.67;10.48;;;;;;;;;;5090272;28;20469;-67
2023/02/11 03:26:27;;;;;;;24.00;10.63;;;;;;;;;;5081073;28;20154;-65
2023/02/11 03:29:02;;;;;;;24.42;11.13;;;;;;;;;;5087255;28;20510;-68
2023/02/11 03:31:30;;;;;;;26.10;11.93;;;;;;;;;;5079495;28;20036;-65
2023/02/11 03:34:11;;;;;;;22.90;11.23;;;;;;;;;;5086386;28;20027;-66
2023/02/11 03:36:49;;;;;;;23.80;11.07;;;;;;;;;;5087911;28;20035;-68
2023/02/11 03:39:18;;;;;;;28.02;10.77;;;;;;;;;;5085021;28;20025;-66
2023/02/11 03:41:44;;;;;;;26.20;11.30;;;;;;;;;;5086563;28;20031;-69
2023/02/11 03:44:12;;;;;;;23.95;11.15;;;;;;;;;;5083209;28;20035;-67
2023/02/11 03:46:38;;;;;;;24.08;11.30;;;;;;;;;;5090900;28;20032;-67
2023/02/11 03:49:06;;;;;;;24.10;10.75;;;;;;;;;;5089106;28;20056;-68
2023/02/11 03:51:32;;;;;;;23.27;11.18;;;;;;;;;;5090267;28;20043;-68
2023/02/11 03:53:58;;;;;;;22.77;10.95;;;;;;;;;;5091947;28;20026;-64
2023/02/11 03:56:25;;;;;;;25.35;11.68;;;;;;;;;;5084286;28;20020;-66
2023/02/11 03:58:50;;;;;;;28.10;11.02;;;;;;;;;;5090001;28;20051;-67
2023/02/11 04:01:16;;;;;;;25.83;11.13;;;;;;;;;;5082822;28;20105;-65
2023/02/11 04:03:41;;;;;;;25.13;11.50;;;;;;;;;;5086011;28;20042;-67
2023/02/11 04:06:06;;;;;;;25.33;11.77;;;;;;;;;;5087886;28;20481;-65
2023/02/11 04:08:32;;;;;;;27.92;11.48;;;;;;;;;;5093481;28;20027;-66
2023/02/11 04:10:57;;;;;;;25.10;12.23;;;;;;;;;;5084193;28;20044;-65
2023/02/11 04:13:22;;;;;;;24.33;11.30;;;;;;;;;;5087593;28;20070;-67
2023/02/11 04:15:47;;;;;;;26.17;11.57;;;;;;;;;;5084157;28;20052;-65
2023/02/11 04:18:12;;;;;;;27.40;11.60;;;;;;;;;;5091310;28;20034;-67
2023/02/11 04:20:37;;;;;;;27.30;11.43;;;;;;;;;;5090645;28;20107;-66
2023/02/11 04:23:02;;;;;;;26.38;11.13;;;;;;;;;;5089418;28;20027;-67
2023/02/11 04:25:28;;;;;;;26.30;11.73;;;;;;;;;;5084305;28;20060;-66
2023/02/11 04:27:53;;;;;;;29.23;11.70;;;;;;;;;;5091795;28;20035;-67
2023/02/11 04:30:18;;;;;;;27.37;12.60;;;;;;;;;;5091617;28;20377;-66
2023/02/11 04:32:43;;;;;;;26.02;11.23;;;;;;;;;;5091029;28;20080;-66
2023/02/11 04:35:08;;;;;;;26.95;11.45;;;;;;;;;;5091268;28;20029;-64
2023/02/11 04:37:34;;;;;;;24.10;11.77;;;;;;;;;;5089366;28;20028;-67
2023/02/11 04:39:59;;;;;;;22.05;10.70;;;;;;;;;;5090086;28;20134;-66
2023/02/11 04:42:24;;;;;;;24.70;11.57;;;;;;;;;;5084293;28;20048;-66
2023/02/11 04:44:49;;;;;;;26.20;12.23;;;;;;;;;;5090263;28;20035;-65
2023/02/11 04:47:15;;;;;;;25.98;12.07;;;;;;;;;;5091269;28;20028;-66
2023/02/11 04:49:40;;;;;;;25.33;11.83;;;;;;;;;;5083343;28;20020;-66
2023/02/11 04:52:05;;;;;;;24.90;11.38;;;;;;;;;;5091014;28;20032;-64
2023/02/11 04:54:31;;;;;;;24.77;11.55;;;;;;;;;;5090679;28;20060;-66
2023/02/11 04:56:56;;;;;;;25.98;11.55;;;;;;;;;;5083847;28;20032;-65
2023/02/11 04:59:21;;;;;;;27.73;12.40;;;;;;;;;;5087241;28;20629;-68
2023/02/11 05:01:46;;;;;;;28.33;11.30;;;;;;;;;;5090628;28;20032;-66
2023/02/11 05:04:11;;;;;;;25.50;11.77;;;;;;;;;;5079436;28;20085;-65
2023/02/11 05:06:37;;;;;;;28.63;12.52;;;;;;;;;;5090205;28;20034;-67
2023/02/11 05:09:02;;;;;;;26.52;11.75;;;;;;;;;;5091662;28;20074;-67
2023/02/11 05:11:27;;;;;;;26.73;12.37;;;;;;;;;;5089365;28;20032;-67
2023/02/11 05:13:52;;;;;;;31.00;13.25;;;;;;;;;;5094775;28;20080;-67
2023/02/11 05:16:18;;;;;;;27.77;12.88;;;;;;;;;;5089461;28;20035;-67
2023/02/11 05:18:43;;;;;;;32.67;12.90;;;;;;;;;;5083662;28;20020;-66
2023/02/11 05:21:10;;;;;;;27.95;12.15;;;;;;;;;;5089199;28;20024;-67
2023/02/11 05:23:35;;;;;;;26.42;12.23;;;;;;;;;;5090620;28;20124;-67
2023/02/11 05:26:01;;;;;;;26.92;12.73;;;;;;;;;;5099874;28;20109;-66
2023/02/11 05:28:26;;;;;;;28.43;12.20;;;;;;;;;;5094104;28;20012;-65
2023/02/11 05:30:51;;;;;;;26.93;11.63;;;;;;;;;;5094388;28;20031;-67
2023/02/11 05:33:16;;;;;;;27.98;12.00;;;;;;;;;;5075895;28;20040;-67
2023/02/11 05:35:41;;;;;;;29.48;13.30;;;;;;;;;;5090267;28;20028;-65
2023/02/11 05:38:06;;;;;;;28.65;11.98;;;;;;;;;;5085043;28;20107;-68
2023/02/11 05:40:31;;;;;;;28.77;13.03;;;;;;;;;;5091006;28;20019;-65
2023/02/11 05:42:57;;;;;;;28.47;13.03;;;;;;;;;;5091796;28;20019;-67
2023/02/11 05:45:22;;;;;;;28.48;12.20;;;;;;;;;;5076817;28;20576;-66
2023/02/11 05:47:47;;;;;;;36.70;13.13;;;;;;;;;;5089842;28;20034;-64
2023/02/11 05:50:12;;;;;;;27.13;12.43;;;;;;;;;;5075317;28;20016;-67
2023/02/11 05:52:37;;;;;;;27.17;12.70;;;;;;;;;;5076619;28;20036;-66
2023/02/11 05:55:02;;;;;;;33.17;13.73;;;;;;;;;;5085624;28;20027;-66
2023/02/11 05:57:28;;;;;;;29.20;12.67;;;;;;;;;;5091474;28;20481;-66
2023/02/11 05:59:53;;;;;;;31.25;13.40;;;;;;;;;;5077006;28;20465;-67
2023/02/11 06:02:18;;;;;;;30.25;13.82;;;;;;;;;;5076350;28;20385;-66
2023/02/11 06:04:43;;;;;;;29.90;12.38;;;;;;;;;;5078445;28;20097;-66
2023/02/11 06:07:08;;;;;;;28.57;13.10;;;;;;;;;;5087630;28;20024;-65
2023/02/11 06:09:34;;;;;;;32.63;14.13;;;;;;;;;;5078049;28;20020;-68
2023/02/11 06:11:59;;;;;;;30.38;13.55;;;;;;;;;;5080022;28;20100;-66
2023/02/11 06:14:24;;;;;;;30.58;14.07;;;;;;;;;;5087979;28;20028;-66
2023/02/11 06:16:49;;;;;;;32.40;13.63;;;;;;;;;;5088051;28;20032;-65
2023/02/11 06:19:14;;;;;;;27.23;13.17;;;;;;;;;;5087251;28;20048;-69
2023/02/11 06:21:39;;;;;;;32.28;13.75;;;;;;;;;;5081655;28;20027;-65
2023/02/11 06:24:05;;;;;;;31.70;13.98;;;;;;;;;;5071754;28;20103;-68
2023/02/11 06:26:30;;;;;;;29.35;12.82;;;;;;;;;;5090156;28;20435;-66
2023/02/11 06:28:55;;;;;;;30.53;13.57;;;;;;;;;;5088552;28;20035;-67
2023/02/11 06:31:20;;;;;;;31.98;14.00;;;;;;;;;;5071213;28;20351;-65
2023/02/11 06:33:45;;;;;;;27.33;12.52;;;;;;;;;;5086523;28;20481;-66
2023/02/11 06:36:15;;;;;;;28.27;12.73;;;;;;;;;;5076146;28;20025;-66
2023/02/11 06:38:40;;;;;;;28.10;13.02;;;;;;;;;;5073827;28;20024;-67
2023/02/11 06:41:07;;;;;;;31.07;13.03;;;;;;;;;;5082103;28;20107;-66
2023/02/11 06:43:32;;;;;;;31.38;12.75;;;;;;;;;;5088089;28;20114;-66
2023/02/11 06:45:57;;;;;;;28.90;13.15;;;;;;;;;;5087658;28;20549;-66
2023/02/11 06:48:23;;;;;;;28.23;12.55;;;;;;;;;;5087223;28;20024;-67
2023/02/11 06:50:48;;;;;;;26.50;11.97;;;;;;;;;;5084159;28;20021;-66
2023/02/11 06:53:13;;;;;;;30.88;13.55;;;;;;;;;;5092811;28;20374;-66
2023/02/11 06:55:38;;;;;;;27.17;12.80;;;;;;;;;;5084393;28;20016;-64
2023/02/11 06:58:03;;;;;;;26.90;12.33;;;;;;;;;;5073981;28;20101;-66
2023/02/11 07:00:28;;;;;;;26.65;12.05;;;;;;;;;;5076996;28;20111;-66
2023/02/11 07:02:54;;;;;;;26.83;12.35;;;;;;;;;;5077576;28;20500;-67
2023/02/11 07:05:19;;;;;;;30.07;12.97;;;;;;;;;;5090095;28;20027;-68
2023/02/11 07:07:44;;;;;;;29.80;13.10;;;;;;;;;;5093588;28;20511;-68
2023/02/11 07:10:09;;;;;;;34.83;12.73;;;;;;;;;;5093035;28;20047;-65
2023/02/11 07:12:34;;;;;;;28.73;12.77;;;;;;;;;;5080985;28;20432;-64
2023/02/11 07:14:59;;;;;;;28.58;13.10;;;;;;;;;;5077132;28;20788;-65
2023/02/11 07:17:25;;;;;;;32.97;13.83;;;;;;;;;;5081871;28;20023;-67
2023/02/11 07:19:50;;;;;;;30.77;13.30;;;;;;;;;;5086568;28;20096;-67
2023/02/11 07:25:18;;;;;;;27.27;12.95;;;;;;;;;;4998895;28;20052;-67
2023/02/11 07:27:43;;;;;;;31.37;13.67;;;;;;;;;;4986140;28;20027;-67
2023/02/11 07:30:09;;;;;;;29.90;13.15;;;;;;;;;;4990557;28;20023;-67
2023/02/11 07:32:34;;;;;;;30.10;12.68;;;;;;;;;;4991745;28;20548;-67
2023/02/11 07:34:59;;;;;;;29.08;13.35;;;;;;;;;;4985533;28;20046;-68
2023/02/11 07:37:24;;;;;;;30.50;13.23;;;;;;;;;;4990436;28;20034;-67
2023/02/11 07:39:49;;;;;;;30.85;12.82;;;;;;;;;;4991403;28;20034;-67
2023/02/11 07:42:14;;;;;;;30.57;13.53;;;;;;;;;;4990631;28;20022;-67
2023/02/11 07:44:40;;;;;;;31.05;13.40;;;;;;;;;;4982938;28;20426;-69
2023/02/11 07:47:05;;;;;;;28.63;12.73;;;;;;;;;;4979176;28;20046;-69
2023/02/11 07:49:30;;;;;;;27.80;12.43;;;;;;;;;;4982380;28;20025;-69
2023/02/11 07:51:55;;;;;;;29.33;13.20;;;;;;;;;;4989303;28;20038;-68
2023/02/11 07:54:20;;;;;;;28.27;12.65;;;;;;;;;;4980742;28;20025;-69
2023/02/11 07:56:46;;;;;;;28.05;12.50;;;;;;;;;;4990812;28;20034;-69
2023/02/11 07:59:11;;;;;;;28.38;12.27;;;;;;;;;;4992033;28;20485;-68
2023/02/11 08:01:36;;;;;;;29.60;13.00;;;;;;;;;;4985792;28;20030;-69
2023/02/11 08:04:01;;;;;;;28.50;13.80;;;;;;;;;;4991901;28;20457;-67
2023/02/11 08:06:28;;;;;;;29.58;12.95;;;;;;;;;;4985847;28;20454;-65
2023/02/11 08:08:53;;;;;;;31.40;13.23;;;;;;;;;;4991659;28;20037;-67
2023/02/11 08:11:20;;;;;;;30.08;13.43;;;;;;;;;;4992395;28;20015;-67
2023/02/11 08:13:45;;;;;;;28.35;12.88;;;;;;;;;;4991148;28;20033;-66
2023/02/11 08:16:17;;;;;;;29.87;12.80;;;;;;;;;;4998330;28;20394;-66
2023/02/11 08:18:42;;;;;;;26.60;12.70;;;;;;;;;;4997664;28;20034;-66
2023/02/11 08:21:08;;;;;;;27.85;12.45;;;;;;;;;;4991666;28;20037;-67
2023/02/11 08:23:35;;;;;;;27.63;11.90;;;;;;;;;;4989545;28;20121;-65
2023/02/11 08:26:01;;;;;;;25.40;12.18;;;;;;;;;;4991346;28;20054;-66
2023/02/11 08:28:26;;;;;;;31.55;13.15;;;;;;;;;;4992795;28;20389;-67
2023/02/11 08:30:51;;;;;;;30.55;13.57;;;;;;;;;;4991712;28;20548;-67
2023/02/11 08:33:16;;;;;;;32.63;13.20;;;;;;;;;;4991745;28;20026;-67
2023/02/11 08:35:42;;;;;;;29.45;12.27;;;;;;;;;;4992698;28;20022;-67
2023/02/11 08:38:07;;;;;;;28.40;13.23;;;;;;;;;;4991657;28;20457;-67
2023/02/11 08:40:32;;;;;;;27.55;11.93;;;;;;;;;;4993178;28;20095;-67
2023/02/11 08:42:58;;;;;;;28.58;13.30;;;;;;;;;;4990424;28;20401;-67
2023/02/11 08:45:23;;;;;;;28.05;11.80;;;;;;;;;;4992223;28;20018;-67
2023/02/11 08:47:48;;;;;;;30.40;13.77;;;;;;;;;;4990553;28;20073;-67
2023/02/11 08:50:13;;;;;;;27.47;12.37;;;;;;;;;;4991244;28;20073;-67
2023/02/11 08:52:38;;;;;;;28.23;12.85;;;;;;;;;;4988995;28;20049;-67
2023/02/11 08:55:04;;;;;;;33.13;12.60;;;;;;;;;;4990729;28;20037;-67
2023/02/11 08:57:29;;;;;;;29.38;12.65;;;;;;;;;;4991816;28;20046;-67
2023/02/11 08:59:54;;;;;;;28.95;12.80;;;;;;;;;;4991954;28;20034;-67
2023/02/11 09:02:19;;;;;;;30.03;12.60;;;;;;;;;;4991321;28;20014;-67
2023/02/11 09:04:44;;;;;;;26.17;12.48;;;;;;;;;;4991545;28;20053;-67
2023/02/11 09:07:11;;;;;;;27.60;12.32;;;;;;;;;;4991768;28;20475;-67
2023/02/11 09:09:36;;;;;;;27.00;12.98;;;;;;;;;;4991196;28;20076;-67
2023/02/11 09:12:01;;;;;;;25.73;12.27;;;;;;;;;;4991062;28;20097;-66
2023/02/11 09:14:26;;;;;;;27.57;12.40;;;;;;;;;;4991489;28;20491;-67
2023/02/11 09:16:52;;;;;;;26.53;13.10;;;;;;;;;;4991189;28;20010;-67
2023/02/11 09:19:17;;;;;;;29.42;12.75;;;;;;;;;;4997784;28;20109;-66
2023/02/11 09:21:42;;;;;;;29.77;13.00;;;;;;;;;;4991556;28;20425;-67
2023/02/11 09:24:08;;;;;;;30.07;12.10;;;;;;;;;;4991093;28;20095;-66
2023/02/11 09:26:34;;;;;;;28.17;12.98;;;;;;;;;;4991327;28;20083;-68
2023/02/11 09:28:59;;;;;;;27.02;12.63;;;;;;;;;;4990898;28;20089;-67
2023/02/11 09:31:25;;;;;;;25.65;12.23;;;;;;;;;;4991142;28;20026;-67
2023/02/11 09:33:52;;;;;;;28.33;12.55;;;;;;;;;;4990360;28;20025;-67
2023/02/11 09:36:18;;;;;;;27.85;13.30;;;;;;;;;;4991173;28;20105;-68
2023/02/11 09:38:43;;;;;;;24.67;11.82;;;;;;;;;;4991314;28;20066;-68
2023/02/11 09:41:27;;;;;;;28.13;12.27;;;;;;;;;;4990943;28;20038;-67
2023/02/11 09:43:57;;;;;;;25.15;12.73;;;;;;;;;;4990756;28;20445;-67
2023/02/11 09:46:23;;;;;;;29.33;12.70;;;;;;;;;;4995191;28;20018;-67
2023/02/11 09:48:49;;;;;;;27.90;12.65;;;;;;;;;;4991010;28;20080;-67
2023/02/11 09:51:33;;;;;;;27.35;12.88;;;;;;;;;;4988083;28;20122;-67
2023/02/11 09:54:02;;;;;;;28.67;13.00;;;;;;;;;;4988290;28;20053;-67
2023/02/11 09:56:27;;;;;;;28.80;12.80;;;;;;;;;;4992064;28;20088;-67
2023/02/11 09:58:53;;;;;;;28.05;13.35;;;;;;;;;;4991000;28;20022;-67
2023/02/11 10:01:29;;;;;;;29.90;13.63;;;;;;;;;;4993270;28;20018;-67
2023/02/11 10:03:54;;;;;;;29.30;12.85;;;;;;;;;;4989343;28;20477;-68
2023/02/11 10:06:32;;;;;;;27.50;13.75;;;;;;;;;;4986239;28;20425;-67
2023/02/11 10:09:05;;;;;;;32.72;14.68;;;;;;;;;;4988287;28;20023;-68
2023/02/11 10:11:46;;;;;;;29.30;13.50;;;;;;;;;;4985663;28;20026;-67
2023/02/11 10:14:31;;;;;;;31.25;14.13;;;;;;;;;;4988464;28;20068;-66
2023/02/11 10:17:11;;;;;;;31.33;13.38;;;;;;;;;;4979485;28;20124;-68
2023/02/11 10:19:59;;;;;;;29.35;13.63;;;;;;;;;;4984959;28;20576;-67
2023/02/11 10:22:30;;;;;;;28.13;12.18;;;;;;;;;;4998137;28;20185;-67
2023/02/11 10:24:58;;;;;;;29.73;13.55;;;;;;;;;;4991509;28;20109;-67
2023/02/11 10:27:27;;;;;;;27.08;13.13;;;;;;;;;;4989979;28;20030;-68
2023/02/11 10:30:01;;;;;;;29.20;12.43;;;;;;;;;;5001466;28;20025;-68
2023/02/11 10:32:30;;;;;;;27.15;12.40;;;;;;;;;;5010552;28;20050;-67
2023/02/11 10:34:57;;;;;;;30.08;12.45;;;;;;;;;;5010601;28;20018;-68
2023/02/11 10:37:22;;;;;;;29.77;14.00;;;;;;;;;;5003212;28;20533;-68
2023/02/11 10:39:47;;;;;;;30.00;13.57;;;;;;;;;;5000253;28;20101;-68
2023/02/11 10:42:13;;;;;;;30.58;13.40;;;;;;;;;;5010180;28;20029;-67
2023/02/11 10:44:42;;;;;;;29.95;13.85;;;;;;;;;;5010509;28;20041;-68
2023/02/11 10:47:13;;;;;;;28.00;12.80;;;;;;;;;;5001375;28;20026;-67
2023/02/11 10:49:40;;;;;;;29.77;13.55;;;;;;;;;;4996006;28;20109;-67
2023/02/11 10:52:25;;;;;;;27.33;12.85;;;;;;;;;;4993411;28;20081;-68
2023/02/11 10:55:14;;;;;;;26.75;12.70;;;;;;;;;;5000069;28;20030;-68
2023/02/11 10:57:44;;;;;;;28.40;13.02;;;;;;;;;;5000997;28;20022;-68
2023/02/11 11:00:21;;;;;;;31.25;12.60;;;;;;;;;;4999067;28;20026;-68
2023/02/11 11:02:51;;;;;;;27.10;13.40;;;;;;;;;;5014490;28;20537;-67
2023/02/11 11:05:18;;;;;;;30.17;12.98;;;;;;;;;;5017730;28;20112;-69
2023/02/11 11:07:51;;;;;;;26.73;12.50;;;;;;;;;;5001505;28;20080;-66
2023/02/11 11:10:35;;;;;;;31.40;13.85;;;;;;;;;;4985436;28;20109;-66
2023/02/11 11:13:00;;;;;;;28.30;13.57;;;;;;;;;;5006085;28;20022;-66
2023/02/11 11:15:26;;;;;;;26.20;12.63;;;;;;;;;;5014080;28;20033;-66
2023/02/11 11:18:10;;;;;;;27.35;12.38;;;;;;;;;;5014255;28;20032;-66
2023/02/11 11:20:36;;;;;;;25.95;12.93;;;;;;;;;;5000789;28;20132;-66
2023/02/11 11:23:15;;;;;;;30.85;12.82;;;;;;;;;;4994294;28;20033;-67
2023/02/11 11:25:42;;;;;;;26.50;11.68;;;;;;;;;;4993243;28;20036;-67
2023/02/11 11:28:07;;;;;;;;;;;;;;;;;;5000924;28;20030;-68
2023/02/11 11:30:37;;;;;;;25.80;12.20;;;;;;;;;;5000538;28;19910;-68
2023/02/11 11:33:03;;;;;;;26.60;12.13;;;;;;;;;;4996905;28;20109;-67
2023/02/11 11:35:31;;;;;;;27.85;12.35;;;;;;;;;;5013341;28;20026;-68
2023/02/11 11:37:59;;;;;;;25.45;11.45;;;;;;;;;;5002582;28;20026;-68
2023/02/11 11:40:26;;;;;;;25.63;12.80;;;;;;;;;;4999458;28;20358;-67
2023/02/11 11:43:21;;;;;;;27.45;12.13;;;;;;;;;;5004473;28;20029;-68
2023/02/11 11:45:56;;;;;;;25.50;11.77;;;;;;;;;;5024842;28;20029;-67
2023/02/11 11:48:25;;;;;;;26.88;12.52;;;;;;;;;;5012865;28;20026;-67
2023/02/11 11:50:58;;;;;;;26.98;12.50;;;;;;;;;;5002998;28;20018;-68
2023/02/11 11:53:36;;;;;;;26.35;13.02;;;;;;;;;;5007154;28;20631;-68
2023/02/11 11:56:10;;;;;;;28.63;12.30;;;;;;;;;;5013512;28;20540;-65
2023/02/11 11:58:36;;;;;;;24.45;12.13;;;;;;;;;;5013462;28;20029;-66
2023/02/11 12:01:10;;;;;;;25.73;11.77;;;;;;;;;;5001381;28;20030;-66
2023/02/11 12:03:54;;;;;;;23.85;11.23;;;;;;;;;;5008799;28;20014;-67
2023/02/11 12:06:29;;;;;;;22.05;11.25;;;;;;;;;;5012680;28;20100;-65
2023/02/11 12:08:58;;;;;;;25.58;11.75;;;;;;;;;;5012024;28;20014;-67
2023/02/11 12:11:29;;;;;;;21.83;10.60;;;;;;;;;;5000649;28;20478;-67
2023/02/11 12:14:03;;;;;;;23.08;10.95;;;;;;;;;;5011434;28;20128;-68
2023/02/11 12:16:28;;;;;;;21.95;10.90;;;;;;;;;;5012743;28;20025;-66
2023/02/11 12:19:04;;;;;;;23.75;10.80;;;;;;;;;;5012408;28;20466;-66
2023/02/11 12:21:52;;;;;;;23.77;10.25;;;;;;;;;;5003786;28;20022;-66
2023/02/11 12:24:46;;;;;;;22.40;11.30;;;;;;;;;;4972999;28;20039;-68
2023/02/11 12:27:17;;;;;;;23.85;11.43;;;;;;;;;;4970849;28;20043;-67
2023/02/11 12:30:01;;;;;;;25.08;11.13;;;;;;;;;;4981935;28;20105;-67
2023/02/11 12:32:32;;;;;;;23.38;10.95;;;;;;;;;;4996922;28;20037;-67
2023/02/11 12:35:16;;;;;;;24.13;10.32;;;;;;;;;;4992584;28;20030;-67
2023/02/11 12:38:01;;;;;;;23.75;11.68;;;;;;;;;;4991331;28;20335;-66
2023/02/11 12:40:35;;;;;;;23.33;11.30;;;;;;;;;;5000234;28;20045;-66
2023/02/11 12:43:20;;;;;;;25.45;10.70;;;;;;;;;;5011134;28;20455;-65
2023/02/11 12:46:03;;;;;;;26.30;11.27;;;;;;;;;;5012581;28;20100;-67
2023/02/11 12:48:38;;;;;;;22.65;10.88;;;;;;;;;;5004681;28;20147;-68
2023/02/11 12:51:13;;;;;;;22.75;11.80;;;;;;;;;;4997858;28;20026;-68
2023/02/11 12:53:53;;;;;;;24.30;11.27;;;;;;;;;;5008043;28;20504;-68
2023/02/11 12:56:24;;;;;;;24.90;11.68;;;;;;;;;;5011628;28;20026;-66
2023/02/11 12:58:51;;;;;;;25.38;12.65;;;;;;;;;;5004435;28;20509;-68
2023/02/11 13:01:21;;;;;;;26.65;11.55;;;;;;;;;;5001236;28;20424;-65
2023/02/11 13:03:56;;;;;;;25.23;12.02;;;;;;;;;;4991628;28;20371;-67
2023/02/11 13:06:24;;;;;;;21.55;10.80;;;;;;;;;;4992074;28;20030;-67
2023/02/11 13:08:52;;;;;;;24.02;11.57;;;;;;;;;;4993745;28;20065;-66
2023/02/11 13:11:23;;;;;;;25.17;12.15;;;;;;;;;;5003188;28;20043;-66
2023/02/11 13:13:54;;;;;;;24.80;10.90;;;;;;;;;;5010713;28;20038;-67
2023/02/11 13:16:31;;;;;;;23.98;11.20;;;;;;;;;;5011701;28;20062;-67
2023/02/11 13:19:02;;;;;;;23.70;11.70;;;;;;;;;;5003056;28;20091;-66
2023/02/11 13:21:36;;;;;;;24.73;10.98;;;;;;;;;;4998851;28;20105;-66
2023/02/11 13:24:17;;;;;;;23.00;11.57;;;;;;;;;;4990112;28;20101;-67
2023/02/11 13:26:56;;;;;;;27.52;11.18;;;;;;;;;;4991860;28;20432;-67
2023/02/11 13:29:36;;;;;;;22.77;10.20;;;;;;;;;;4994079;28;20126;-65
2023/02/11 13:32:10;;;;;;;24.00;10.93;;;;;;;;;;4994934;28;20025;-66
2023/02/11 13:34:41;;;;;;;25.80;11.73;;;;;;;;;;4985906;28;20101;-65
2023/02/11 13:37:22;;;;;;;23.80;10.95;;;;;;;;;;4982222;28;20034;-66
2023/02/11 13:40:07;;;;;;;27.45;11.43;;;;;;;;;;4988916;28;20129;-65
2023/02/11 13:42:45;;;;;;;21.67;10.30;;;;;;;;;;4990040;28;20077;-66
2023/02/11 13:45:10;;;;;;;;;;;;;;;;;;4987673;28;20033;-67
2023/02/11 13:47:36;;;;;;;20.98;9.73;;;;;;;;;;4989539;28;19909;-68
2023/02/11 13:50:04;;;;;;;24.52;10.43;;;;;;;;;;4992019;28;20074;-65
2023/02/11 13:52:31;;;;;;;21.35;10.68;;;;;;;;;;4999902;28;20073;-68
2023/02/11 13:55:00;;;;;;;22.30;10.48;;;;;;;;;;4989575;28;20019;-68
2023/02/11 13:57:35;;;;;;;22.63;10.68;;;;;;;;;;4985330;28;20026;-66
2023/02/11 14:00:02;;;;;;;26.58;11.35;;;;;;;;;;4990671;28;20433;-67
2023/02/11 14:10:58;;;;;;;25.77;11.18;;;;;;;;;;4990630;28;20076;-66
2023/02/11 14:13:26;;;;;;;21.63;10.52;;;;;;;;;;4989561;28;20457;-67
2023/02/11 14:16:13;;;;;;;24.90;11.70;;;;;;;;;;4989829;28;20054;-66
2023/02/11 14:18:47;;;;;;;24.70;11.27;;;;;;;;;;4990048;28;20057;-68
2023/02/11 14:21:14;;;;;;;24.17;11.23;;;;;;;;;;4990871;28;20101;-68
2023/02/11 14:23:39;;;;;;;;;;;;;;;;;;4987941;28;20500;-66
2023/02/11 14:26:20;;;;;;;23.25;11.40;;;;;;;;;;4990822;28;19914;-68
2023/02/11 14:28:47;;;;;;;23.27;10.52;;;;;;;;;;4990935;28;20030;-65
2023/02/11 14:31:16;;;;;;;25.40;11.65;;;;;;;;;;4990533;28;20779;-66
2023/02/11 14:33:41;;;;;;;23.83;11.07;;;;;;;;;;4989309;28;20026;-67
2023/02/11 14:36:13;;;;;;;23.95;10.90;;;;;;;;;;4990356;28;20045;-66
2023/02/11 14:38:44;;;;;;;22.67;11.27;;;;;;;;;;4987873;28;20030;-67
2023/02/11 14:41:18;;;;;;;22.90;10.82;;;;;;;;;;4987210;28;20050;-65